createdAt,value
2022-08-25T00:02:57.747Z,17.20
2022-08-25T00:05:59.443Z,17.20
2022-08-25T00:09:00.779Z,17.20
2022-08-25T00:12:03.542Z,17.30
2022-08-25T00:15:06.424Z,17.20
2022-08-25T00:18:11.427Z,17.20
2022-08-25T00:21:22.590Z,17.10
2022-08-25T00:24:25.051Z,17.00
2022-08-25T00:27:26.179Z,16.80
2022-08-25T00:30:27.841Z,16.90
2022-08-25T00:33:31.422Z,16.70
2022-08-25T00:36:32.415Z,16.70
2022-08-25T00:39:35.037Z,16.60
2022-08-25T00:42:36.641Z,16.50
2022-08-25T00:45:38.890Z,16.40
2022-08-25T00:48:44.053Z,16.40
2022-08-25T00:51:59.207Z,16.40
2022-08-25T00:55:14.263Z,16.40
2022-08-25T00:58:26.767Z,16.40
2022-08-25T01:01:28.235Z,16.10
2022-08-25T01:04:29.855Z,16.00
2022-08-25T01:07:31.082Z,16.00
2022-08-25T01:10:35.742Z,16.00
2022-08-25T01:13:49.528Z,16.00
2022-08-25T01:16:53.750Z,16.00
2022-08-25T01:19:55.980Z,16.00
2022-08-25T01:22:58.537Z,16.20
2022-08-25T01:26:18.535Z,16.20
2022-08-25T01:29:22.282Z,16.20
2022-08-25T01:32:24.004Z,16.00
2022-08-25T01:35:25.164Z,15.90
2022-08-25T01:38:26.795Z,15.80
2022-08-25T01:41:40.598Z,15.80
2022-08-25T01:44:46.444Z,15.70
2022-08-25T01:47:47.513Z,15.50
2022-08-25T01:50:49.144Z,15.30
2022-08-25T01:53:51.076Z,15.30
2022-08-25T01:56:51.905Z,15.30
2022-08-25T01:59:52.659Z,15.20
2022-08-25T02:02:54.217Z,15.10
2022-08-25T02:05:59.094Z,15.20
2022-08-25T02:09:06.467Z,15.30
2022-08-25T02:12:09.522Z,15.40
2022-08-25T02:15:11.285Z,15.40
2022-08-25T02:18:13.592Z,15.40
2022-08-25T02:21:15.666Z,15.40
2022-08-25T02:24:18.156Z,15.30
2022-08-25T02:27:19.192Z,15.30
2022-08-25T02:30:20.716Z,15.30
2022-08-25T02:33:22.552Z,15.30
2022-08-25T02:36:23.983Z,15.30
2022-08-25T02:39:25.231Z,15.30
2022-08-25T02:42:27.223Z,15.10
2022-08-25T02:45:28.732Z,15.00
2022-08-25T02:48:29.889Z,15.10
2022-08-25T02:51:32.134Z,15.10
2022-08-25T02:54:33.175Z,14.90
2022-08-25T02:57:34.443Z,14.90
2022-08-25T03:00:36.017Z,14.70
2022-08-25T03:03:39.452Z,14.60
2022-08-25T03:06:41.052Z,14.80
2022-08-25T03:09:41.748Z,14.90
2022-08-25T03:12:43.169Z,14.90
2022-08-25T03:15:46.001Z,15.10
2022-08-25T03:18:50.771Z,15.10
2022-08-25T03:21:56.119Z,15.00
2022-08-25T03:25:19.951Z,14.80
2022-08-25T03:28:29.954Z,14.80
2022-08-25T03:31:32.418Z,14.60
2022-08-25T03:34:33.436Z,14.40
2022-08-25T03:37:35.565Z,14.30
2022-08-25T03:40:36.677Z,14.40
2022-08-25T03:43:37.869Z,14.40
2022-08-25T03:46:46.948Z,14.30
2022-08-25T03:49:48.106Z,14.60
2022-08-25T03:52:57.319Z,14.50
2022-08-25T03:55:58.107Z,14.60
2022-08-25T03:59:00.342Z,14.70
2022-08-25T04:02:02.975Z,14.80
2022-08-25T04:05:04.945Z,14.60
2022-08-25T04:08:08.150Z,14.50
2022-08-25T04:11:14.165Z,14.50
2022-08-25T04:14:16.541Z,14.30
2022-08-25T04:17:19.116Z,14.20
2022-08-25T04:20:20.098Z,14.10
2022-08-25T04:23:21.105Z,14.10
2022-08-25T04:26:25.045Z,14.00
2022-08-25T04:29:27.231Z,13.90
2022-08-25T04:32:28.543Z,13.70
2022-08-25T04:35:29.638Z,13.50
2022-08-25T04:38:31.002Z,13.70
2022-08-25T04:41:32.315Z,13.80
2022-08-25T04:44:33.619Z,13.60
2022-08-25T04:47:39.528Z,13.60
2022-08-25T04:50:40.527Z,13.60
2022-08-25T04:53:42.923Z,13.60
2022-08-25T04:56:44.597Z,13.50
2022-08-25T04:59:45.773Z,13.40
2022-08-25T05:02:46.905Z,13.60
2022-08-25T05:05:47.947Z,13.70
2022-08-25T05:08:49.732Z,13.70
2022-08-25T05:11:50.622Z,13.80
2022-08-25T05:14:54.056Z,13.90
2022-08-25T05:17:56.081Z,13.90
2022-08-25T05:21:02.578Z,14.10
2022-08-25T05:24:03.893Z,14.20
2022-08-25T05:27:05.300Z,14.30
2022-08-25T05:30:07.417Z,14.60
2022-08-25T05:33:10.308Z,14.90
2022-08-25T05:36:13.833Z,15.20
2022-08-25T05:39:15.013Z,15.50
2022-08-25T05:42:16.509Z,15.40
2022-08-25T05:45:20.588Z,15.60
2022-08-25T05:48:22.687Z,15.70
2022-08-25T05:51:23.592Z,15.70
2022-08-25T05:54:24.729Z,15.40
2022-08-25T05:57:25.765Z,15.30
2022-08-25T06:00:26.911Z,15.50
2022-08-25T06:03:28.289Z,15.70
2022-08-25T06:06:29.385Z,15.80
2022-08-25T06:09:30.664Z,16.00
2022-08-25T06:12:36.256Z,16.20
2022-08-25T06:15:37.211Z,16.20
2022-08-25T06:18:38.337Z,16.10
2022-08-25T06:21:39.811Z,16.20
2022-08-25T06:24:40.706Z,16.50
2022-08-25T06:27:42.400Z,16.60
2022-08-25T06:30:43.962Z,16.60
2022-08-25T06:33:45.439Z,16.90
2022-08-25T06:36:48.765Z,17.00
2022-08-25T06:39:50.650Z,17.10
2022-08-25T06:42:52.163Z,17.20
2022-08-25T06:45:53.475Z,17.20
2022-08-25T06:48:56.951Z,17.40
2022-08-25T06:51:58.081Z,17.70
2022-08-25T06:54:59.130Z,17.90
2022-08-25T06:57:59.999Z,18.20
2022-08-25T07:01:25.973Z,18.20
2022-08-25T07:04:27.044Z,18.60
2022-08-25T07:07:27.960Z,18.70
2022-08-25T07:10:48.074Z,18.80
2022-08-25T07:13:50.829Z,19.00
2022-08-25T07:16:52.226Z,19.20
2022-08-25T07:19:57.712Z,19.40
2022-08-25T07:22:58.950Z,19.30
2022-08-25T07:29:42.249Z,19.60
2022-08-25T07:32:43.628Z,19.80
2022-08-25T07:35:44.724Z,19.90
2022-08-25T07:38:45.912Z,19.90
2022-08-25T07:41:46.573Z,20.00
2022-08-25T07:44:52.818Z,20.40
2022-08-25T07:47:53.983Z,20.10
2022-08-25T07:50:55.450Z,20.10
2022-08-25T07:53:57.018Z,20.20
2022-08-25T07:56:58.844Z,20.20
2022-08-25T08:00:00.262Z,20.40
2022-08-25T08:03:09.999Z,20.60
2022-08-25T08:06:17.517Z,20.70
2022-08-25T08:09:18.817Z,20.70
2022-08-25T08:12:20.228Z,21.10
2022-08-25T08:15:22.213Z,21.40
2022-08-25T08:18:23.048Z,21.50
2022-08-25T08:21:31.182Z,21.40
2022-08-25T08:24:44.701Z,21.10
2022-08-25T08:27:56.601Z,21.30
2022-08-25T08:30:57.652Z,21.70
2022-08-25T08:33:58.788Z,22.10
2022-08-25T08:37:00.967Z,22.30
2022-08-25T08:40:03.392Z,22.20
2022-08-25T08:43:18.316Z,22.30
2022-08-25T08:46:22.862Z,22.30
2022-08-25T08:49:52.202Z,22.60
2022-08-25T08:53:34.275Z,23.00
2022-08-25T08:56:45.289Z,23.10
2022-08-25T09:00:05.728Z,23.00
2022-08-25T09:03:15.095Z,23.30
2022-08-25T09:06:32.861Z,23.30
2022-08-25T09:09:35.814Z,24.00
2022-08-25T09:13:02.713Z,24.10
2022-08-25T09:16:53.728Z,24.20
2022-08-25T09:20:31.206Z,23.90
2022-08-25T09:24:07.591Z,24.10
2022-08-25T09:27:54.772Z,24.30
2022-08-25T09:31:04.428Z,24.90
2022-08-25T09:34:16.872Z,24.90
2022-08-25T09:37:17.864Z,25.30
2022-08-25T09:40:19.060Z,25.40
2022-08-25T09:43:37.264Z,26.00
2022-08-25T09:46:38.306Z,26.10
2022-08-25T09:50:00.838Z,26.10
2022-08-25T09:53:19.013Z,26.70
2022-08-25T09:56:28.590Z,26.80
2022-08-25T09:59:35.704Z,27.60
2022-08-25T10:02:37.501Z,27.40
2022-08-25T10:05:59.431Z,27.70
2022-08-25T10:09:07.330Z,27.30
2022-08-25T10:12:29.184Z,28.50
2022-08-25T10:15:34.925Z,28.80
2022-08-25T10:18:35.916Z,28.70
2022-08-25T10:21:41.369Z,28.50
2022-08-25T10:24:44.000Z,28.60
2022-08-25T10:28:28.764Z,29.30
2022-08-25T10:31:59.562Z,30.00
2022-08-25T10:35:15.624Z,30.30
2022-08-25T10:38:36.400Z,30.20
2022-08-25T10:41:59.669Z,30.70
2022-08-25T10:45:35.169Z,30.70
2022-08-25T10:48:52.899Z,31.20
2022-08-25T10:52:02.371Z,31.70
2022-08-25T10:55:40.912Z,32.10
2022-08-25T10:59:33.132Z,32.40
2022-08-25T11:02:54.334Z,32.20
2022-08-25T11:06:05.864Z,32.10
2022-08-25T11:09:14.169Z,32.40
2022-08-25T11:12:31.815Z,32.40
2022-08-25T11:16:17.160Z,32.70
2022-08-25T11:19:30.975Z,33.30
2022-08-25T11:22:51.814Z,32.80
2022-08-25T11:26:04.244Z,33.60
2022-08-25T11:29:22.154Z,33.40
2022-08-25T11:32:24.891Z,34.20
2022-08-25T11:35:38.963Z,33.90
2022-08-25T11:39:15.886Z,34.00
2022-08-25T11:42:47.035Z,33.10
2022-08-25T11:46:09.121Z,32.60
2022-08-25T11:49:50.297Z,32.10
2022-08-25T11:53:00.067Z,31.90
2022-08-25T11:56:08.771Z,32.20
2022-08-25T11:59:10.581Z,32.30
2022-08-25T12:02:47.471Z,32.60
2022-08-25T12:06:33.630Z,32.40
2022-08-25T12:09:55.534Z,32.80
2022-08-25T12:13:24.151Z,32.20
2022-08-25T12:16:35.992Z,32.60
2022-08-25T12:19:36.870Z,32.70
2022-08-25T12:22:44.027Z,33.30
2022-08-25T12:25:50.816Z,32.80
2022-08-25T12:29:09.952Z,32.80
2022-08-25T12:32:52.374Z,32.90
2022-08-25T12:36:01.120Z,33.20
2022-08-25T12:39:24.400Z,33.10
2022-08-25T12:42:38.765Z,32.50
2022-08-25T12:45:53.846Z,32.70
2022-08-25T12:49:32.092Z,32.50
2022-08-25T12:52:38.162Z,32.00
2022-08-25T12:55:48.650Z,32.60
2022-08-25T12:59:22.162Z,32.70
2022-08-25T13:03:04.461Z,32.70
2022-08-25T13:06:30.484Z,34.20
2022-08-25T13:10:16.002Z,33.40
2022-08-25T13:13:16.953Z,32.80
2022-08-25T13:16:28.916Z,33.40
2022-08-25T13:19:35.249Z,33.20
2022-08-25T13:22:37.352Z,34.00
2022-08-25T13:25:50.551Z,34.40
2022-08-25T13:29:01.258Z,33.90
2022-08-25T13:32:14.363Z,34.20
2022-08-25T13:35:26.585Z,33.50
2022-08-25T13:38:29.984Z,33.80
2022-08-25T13:41:34.044Z,34.20
2022-08-25T13:44:39.200Z,34.70
2022-08-25T13:47:45.365Z,33.70
2022-08-25T13:50:51.679Z,33.20
2022-08-25T13:54:04.230Z,33.50
2022-08-25T13:57:19.570Z,33.30
2022-08-25T14:00:47.347Z,33.60
2022-08-25T14:03:48.926Z,34.10
2022-08-25T14:07:26.443Z,34.40
2022-08-25T14:10:43.035Z,34.70
2022-08-25T14:13:45.624Z,35.10
2022-08-25T14:17:22.331Z,35.00
2022-08-25T14:20:33.889Z,34.60
2022-08-25T14:23:37.910Z,34.70
2022-08-25T14:26:38.776Z,34.70
2022-08-25T14:29:55.648Z,34.40
2022-08-25T14:32:57.221Z,34.70
2022-08-25T14:36:02.820Z,33.90
2022-08-25T14:39:08.677Z,33.40
2022-08-25T14:42:10.011Z,35.00
2022-08-25T14:45:11.047Z,34.50
2022-08-25T14:48:26.531Z,34.50
2022-08-25T14:51:30.529Z,34.10
2022-08-25T14:54:34.686Z,33.90
2022-08-25T14:57:37.252Z,33.90
2022-08-25T15:00:45.092Z,33.40
2022-08-25T15:03:54.729Z,32.80
2022-08-25T15:07:01.215Z,33.10
2022-08-25T15:10:05.049Z,33.20
2022-08-25T15:13:06.547Z,33.40
2022-08-25T15:16:08.912Z,33.90
2022-08-25T15:19:17.177Z,34.50
2022-08-25T15:22:18.214Z,34.20
2022-08-25T15:25:18.957Z,34.60
2022-08-25T15:28:22.329Z,34.20
2022-08-25T15:31:24.563Z,34.30
2022-08-25T15:34:29.648Z,34.20
2022-08-25T15:37:31.364Z,34.20
2022-08-25T15:40:33.303Z,34.30
2022-08-25T15:43:35.513Z,34.00
2022-08-25T15:46:39.546Z,34.30
2022-08-25T15:49:40.675Z,33.80
2022-08-25T15:52:46.312Z,33.30
2022-08-25T15:55:49.186Z,33.50
2022-08-25T15:58:54.309Z,34.20
2022-08-25T16:01:56.436Z,33.50
2022-08-25T16:04:57.532Z,33.30
2022-08-25T16:07:58.247Z,33.10
2022-08-25T16:11:00.067Z,33.40
2022-08-25T16:14:02.743Z,33.00
2022-08-25T16:17:05.486Z,32.60
2022-08-25T16:20:07.353Z,32.70
2022-08-25T16:23:15.664Z,32.50
2022-08-25T16:26:16.539Z,32.30
2022-08-25T16:29:20.078Z,32.10
2022-08-25T16:32:21.257Z,32.20
2022-08-25T16:35:22.867Z,32.00
2022-08-25T16:38:23.757Z,31.20
2022-08-25T16:41:34.453Z,31.00
2022-08-25T16:44:37.588Z,30.40
2022-08-25T16:47:39.458Z,30.20
2022-08-25T16:50:43.687Z,30.80
2022-08-25T16:54:05.694Z,30.70
2022-08-25T16:57:08.154Z,29.90
2022-08-25T17:00:14.117Z,29.00
2022-08-25T17:03:15.507Z,29.00
2022-08-25T17:06:17.000Z,29.10
2022-08-25T17:09:22.783Z,28.70
2022-08-25T17:12:26.234Z,28.50
2022-08-25T17:15:27.266Z,28.30
2022-08-25T17:18:30.033Z,28.00
2022-08-25T17:21:35.578Z,27.90
2022-08-25T17:24:37.200Z,27.80
2022-08-25T17:27:41.332Z,28.10
2022-08-25T17:30:45.133Z,27.80
2022-08-25T17:33:46.754Z,27.70
2022-08-25T17:36:49.881Z,27.40
2022-08-25T17:40:02.575Z,27.10
2022-08-25T17:43:04.577Z,26.70
2022-08-25T17:46:12.774Z,26.50
2022-08-25T17:49:15.418Z,26.40
2022-08-25T17:52:17.373Z,26.10
2022-08-25T17:55:23.510Z,25.80
2022-08-25T17:58:24.172Z,25.60
2022-08-25T18:01:33.370Z,25.50
2022-08-25T18:04:34.120Z,25.10
2022-08-25T18:07:36.382Z,24.80
2022-08-25T18:10:38.370Z,24.60
2022-08-25T18:13:39.439Z,24.40
2022-08-25T18:16:41.000Z,24.30
2022-08-25T18:19:43.402Z,24.10
2022-08-25T18:22:44.703Z,24.00
2022-08-25T18:25:46.333Z,23.80
2022-08-25T18:28:48.711Z,23.60
2022-08-25T18:31:51.933Z,23.50
2022-08-25T18:34:54.813Z,23.30
2022-08-25T18:38:14.547Z,23.30
2022-08-25T18:41:15.974Z,23.30
2022-08-25T18:44:17.619Z,23.10
2022-08-25T18:47:18.674Z,22.90
2022-08-25T18:50:29.736Z,22.90
2022-08-25T18:53:37.567Z,22.80
2022-08-25T18:56:53.456Z,22.80
2022-08-25T18:59:54.764Z,22.50
2022-08-25T19:02:59.680Z,22.40
2022-08-25T19:06:00.845Z,22.40
2022-08-25T19:09:03.046Z,22.30
2022-08-25T19:12:04.812Z,22.10
2022-08-25T19:15:07.081Z,21.90
2022-08-25T19:18:10.720Z,21.90
2022-08-25T19:21:12.652Z,21.90
2022-08-25T19:24:17.170Z,21.90
2022-08-25T19:27:19.092Z,21.80
2022-08-25T19:30:27.750Z,21.60
2022-08-25T19:33:31.357Z,21.60
2022-08-25T19:36:47.037Z,21.60
2022-08-25T19:39:54.068Z,21.60
2022-08-25T19:42:55.503Z,21.50
2022-08-25T19:45:56.785Z,21.40
2022-08-25T19:48:58.092Z,21.30
2022-08-25T19:52:10.486Z,21.30
2022-08-25T19:55:12.114Z,21.20
2022-08-25T19:58:13.701Z,21.10
2022-08-25T20:01:18.202Z,21.10
2022-08-25T20:04:19.306Z,21.10
2022-08-25T20:07:25.523Z,21.00
2022-08-25T20:10:31.763Z,20.90
2022-08-25T20:13:32.570Z,21.00
2022-08-25T20:16:33.286Z,21.00
2022-08-25T20:19:34.469Z,21.10
2022-08-25T20:22:36.203Z,20.90
2022-08-25T20:25:37.157Z,20.70
2022-08-25T20:28:42.033Z,20.70
2022-08-25T20:31:43.717Z,20.50
2022-08-25T20:38:06.489Z,20.60
2022-08-25T20:41:13.110Z,20.60
2022-08-25T20:44:14.711Z,20.40
2022-08-25T20:47:15.852Z,20.30
2022-08-25T20:50:17.608Z,20.30
2022-08-25T20:53:18.666Z,20.40
2022-08-25T20:56:20.887Z,20.50
2022-08-25T20:59:27.821Z,20.60
2022-08-25T21:02:29.826Z,20.60
2022-08-25T21:05:30.952Z,20.20
2022-08-25T21:08:32.792Z,20.10
2022-08-25T21:11:35.434Z,20.60
2022-08-25T21:14:40.885Z,21.00
2022-08-25T21:17:43.498Z,20.90
2022-08-25T21:20:44.813Z,20.80
2022-08-25T21:23:49.661Z,20.80
2022-08-25T21:26:54.475Z,20.60
2022-08-25T21:29:55.780Z,20.70
2022-08-25T21:32:56.670Z,20.70
2022-08-25T21:35:58.142Z,20.60
2022-08-25T21:39:01.048Z,20.50
2022-08-25T21:42:01.830Z,20.60
2022-08-25T21:45:03.725Z,20.70
2022-08-25T21:48:05.243Z,20.70
2022-08-25T21:51:09.382Z,20.60
2022-08-25T21:54:17.483Z,20.40
2022-08-25T21:57:23.732Z,20.30
2022-08-25T22:00:25.268Z,20.00
2022-08-25T22:03:26.021Z,19.90
2022-08-25T22:06:29.747Z,19.70
2022-08-25T22:09:31.364Z,19.60
2022-08-25T22:12:32.370Z,19.50
2022-08-25T22:15:33.580Z,19.70
2022-08-25T22:18:34.858Z,19.60
2022-08-25T22:21:36.926Z,19.70
2022-08-25T22:24:39.431Z,19.30
2022-08-25T22:27:40.452Z,19.00
2022-08-25T22:30:42.855Z,18.80
2022-08-25T22:33:44.462Z,18.60
2022-08-25T22:36:48.202Z,18.60
2022-08-25T22:39:50.161Z,18.60
2022-08-25T22:42:51.122Z,18.60
2022-08-25T22:46:02.973Z,18.50
2022-08-25T22:49:04.278Z,18.50
2022-08-25T22:52:06.901Z,18.60
2022-08-25T22:55:11.286Z,18.50
2022-08-25T22:58:14.763Z,18.60
2022-08-25T23:01:20.130Z,18.60
2022-08-25T23:04:21.457Z,18.60
2022-08-25T23:07:24.216Z,18.50
2022-08-25T23:10:26.467Z,18.30
2022-08-25T23:13:33.978Z,18.10
2022-08-25T23:16:36.086Z,18.00
2022-08-25T23:19:37.474Z,18.00
2022-08-25T23:22:38.582Z,18.10
2022-08-25T23:25:42.691Z,18.00
2022-08-25T23:28:45.334Z,17.90
2022-08-25T23:31:47.934Z,18.00
2022-08-25T23:34:48.997Z,18.10
2022-08-25T23:37:51.536Z,18.20
2022-08-25T23:40:52.491Z,18.20
2022-08-25T23:43:55.374Z,18.20
2022-08-25T23:46:56.364Z,18.10
2022-08-25T23:49:59.417Z,18.10
2022-08-25T23:53:01.435Z,18.10
2022-08-25T23:56:05.540Z,18.00
2022-08-25T23:59:08.926Z,17.90
